createdAt,value
2023-04-28T00:01:04.469Z,5.73
2023-04-28T00:05:07.733Z,8.27
2023-04-28T00:09:11.049Z,6.23
2023-04-28T00:13:15.240Z,6.33
2023-04-28T00:17:19.252Z,7.50
2023-04-28T00:21:23.600Z,5.80
2023-04-28T00:25:26.358Z,7.77
2023-04-28T00:29:31.006Z,3.97
2023-04-28T00:33:33.646Z,6.03
2023-04-28T00:37:37.706Z,7.43
2023-04-28T00:41:40.344Z,7.27
2023-04-28T00:45:44.485Z,6.50
2023-04-28T00:49:49.511Z,6.37
2023-04-28T00:53:52.621Z,4.93
2023-04-28T00:57:57.538Z,6.67
2023-04-28T01:02:02.373Z,5.20
2023-04-28T01:06:06.233Z,7.47
2023-04-28T01:10:10.429Z,5.20
2023-04-28T01:14:13.197Z,7.00
2023-04-28T01:18:17.676Z,5.30
2023-04-28T01:22:20.665Z,3.97
2023-04-28T01:26:24.921Z,7.70
2023-04-28T01:30:28.131Z,5.03
2023-04-28T01:34:30.763Z,5.27
2023-04-28T01:38:33.602Z,5.60
2023-04-28T01:42:37.597Z,6.70
2023-04-28T01:46:40.860Z,4.93
2023-04-28T01:50:45.459Z,5.90
2023-04-28T01:54:48.229Z,4.80
2023-04-28T01:58:52.628Z,4.17
2023-04-28T02:02:55.400Z,5.73
2023-04-28T02:06:58.646Z,4.67
2023-04-28T02:11:01.735Z,4.17
2023-04-28T02:15:07.084Z,4.47
2023-04-28T02:19:10.030Z,4.90
2023-04-28T02:23:12.747Z,5.20
2023-04-28T02:27:15.542Z,5.80
2023-04-28T02:31:19.931Z,5.87
2023-04-28T02:35:22.768Z,6.47
2023-04-28T02:39:27.101Z,5.43
2023-04-28T02:43:30.156Z,5.17
2023-04-28T02:47:34.245Z,5.07
2023-04-28T02:51:37.102Z,7.33
2023-04-28T02:55:40.041Z,8.67
2023-04-28T02:59:42.741Z,6.67
2023-04-28T03:03:47.448Z,4.67
2023-04-28T03:07:50.430Z,6.93
2023-04-28T03:11:53.132Z,4.70
2023-04-28T03:15:56.087Z,6.13
2023-04-28T03:20:00.398Z,4.57
2023-04-28T03:24:05.450Z,10.23
2023-04-28T03:28:10.668Z,7.73
2023-04-28T03:32:13.498Z,4.73
2023-04-28T03:36:17.804Z,6.47
2023-04-28T03:40:20.571Z,6.10
2023-04-28T03:44:24.154Z,8.67
2023-04-28T03:48:26.860Z,5.80
2023-04-28T03:52:31.046Z,7.80
2023-04-28T03:56:33.843Z,5.83
2023-04-28T04:00:36.782Z,5.30
2023-04-28T04:04:39.866Z,6.57
2023-04-28T04:08:44.503Z,5.80
2023-04-28T04:12:47.213Z,6.67
2023-04-28T04:16:51.692Z,6.03
2023-04-28T04:20:55.928Z,8.50
2023-04-28T04:25:00.245Z,6.37
2023-04-28T04:29:03.211Z,6.13
2023-04-28T04:33:05.965Z,5.77
2023-04-28T04:37:08.714Z,8.60
2023-04-28T04:41:13.110Z,5.67
2023-04-28T04:45:16.177Z,6.43
2023-04-28T04:49:19.206Z,6.33
2023-04-28T04:53:21.937Z,5.63
2023-04-28T04:57:26.562Z,6.10
2023-04-28T05:01:29.261Z,6.20
2023-04-28T05:05:32.139Z,7.40
2023-04-28T05:09:35.062Z,7.67
2023-04-28T05:13:40.560Z,6.27
2023-04-28T05:17:45.812Z,7.97
2023-04-28T05:21:48.641Z,7.93
2023-04-28T05:25:51.606Z,7.00
2023-04-28T05:29:55.607Z,6.00
2023-04-28T05:33:58.878Z,8.27
2023-04-28T05:38:01.681Z,8.67
2023-04-28T05:42:04.704Z,7.63
2023-04-28T05:46:18.255Z,7.33
2023-04-28T05:50:31.680Z,7.33
2023-04-28T05:54:35.715Z,6.60
2023-04-28T05:58:39.128Z,7.63
2023-04-28T06:02:43.808Z,8.97
2023-04-28T06:06:46.929Z,8.23
2023-04-28T06:10:49.837Z,7.70
2023-04-28T06:14:55.340Z,7.30
2023-04-28T06:18:59.715Z,8.00
2023-04-28T06:23:04.839Z,7.53
2023-04-28T06:27:07.552Z,6.80
2023-04-28T06:31:10.337Z,7.97
2023-04-28T06:35:16.148Z,7.40
2023-04-28T06:39:18.878Z,7.20
2023-04-28T06:43:23.825Z,5.93
2023-04-28T06:47:26.592Z,6.10
2023-04-28T06:51:34.486Z,7.07
2023-04-28T06:55:38.657Z,9.00
2023-04-28T06:59:43.887Z,7.83
2023-04-28T07:03:49.997Z,7.47
2023-04-28T07:07:54.477Z,9.57
2023-04-28T07:11:58.238Z,8.37
2023-04-28T07:16:03.419Z,8.33
2023-04-28T07:20:07.335Z,11.10
2023-04-28T07:24:11.747Z,10.27
2023-04-28T07:28:14.885Z,9.50
2023-04-28T07:32:17.985Z,8.10
2023-04-28T07:36:20.847Z,9.23
2023-04-28T07:40:25.527Z,6.17
2023-04-28T07:44:28.269Z,9.60
2023-04-28T07:48:32.377Z,8.03
2023-04-28T07:52:35.617Z,8.60
2023-04-28T07:56:39.741Z,10.17
2023-04-28T08:00:42.537Z,9.27
2023-04-28T08:04:47.831Z,9.43
2023-04-28T08:08:51.208Z,6.37
2023-04-28T08:12:55.542Z,7.23
2023-04-28T08:16:58.748Z,6.87
2023-04-28T08:21:02.074Z,10.87
2023-04-28T08:25:08.324Z,7.80
2023-04-28T08:29:12.574Z,8.67
2023-04-28T08:33:15.637Z,13.60
2023-04-28T08:37:18.597Z,12.40
2023-04-28T08:41:22.545Z,8.70
2023-04-28T08:45:28.453Z,10.13
2023-04-28T08:49:36.127Z,10.30
2023-04-28T08:54:11.262Z,3.23
2023-04-28T08:58:03.883Z,6.27
2023-04-28T09:02:08.775Z,8.37
2023-04-28T09:06:11.811Z,10.23
2023-04-28T09:10:19.151Z,9.23
2023-04-28T09:14:22.197Z,8.93
2023-04-28T09:18:26.248Z,8.37
2023-04-28T09:22:31.533Z,7.63
2023-04-28T09:26:50.649Z,9.20
2023-04-28T09:30:53.464Z,9.60
2023-04-28T09:35:01.686Z,8.73
2023-04-28T09:39:04.686Z,9.27
2023-04-28T09:43:36.246Z,9.03
2023-04-28T09:47:40.637Z,9.50
2023-04-28T09:51:45.032Z,11.07
2023-04-28T09:55:48.539Z,10.20
2023-04-28T09:59:52.259Z,10.30
2023-04-28T10:03:55.230Z,11.13
2023-04-28T10:08:00.302Z,8.87
2023-04-28T10:12:03.704Z,8.53
2023-04-28T10:16:08.288Z,8.17
2023-04-28T10:20:13.017Z,8.57
2023-04-28T10:24:24.013Z,7.90
2023-04-28T10:28:27.333Z,7.87
2023-04-28T10:32:30.934Z,8.77
2023-04-28T10:36:52.441Z,8.33
2023-04-28T10:41:01.584Z,10.50
2023-04-28T10:45:04.536Z,10.57
2023-04-28T10:49:08.329Z,9.30
2023-04-28T10:53:11.229Z,8.83
2023-04-28T10:57:24.665Z,8.73
2023-04-28T11:01:35.310Z,8.50
2023-04-28T11:05:38.559Z,8.90
2023-04-28T11:09:54.481Z,8.20
2023-04-28T11:14:40.696Z,9.13
2023-04-28T11:19:05.065Z,10.03
2023-04-28T11:23:10.391Z,8.47
2023-04-28T11:27:13.216Z,7.73
2023-04-28T11:31:19.388Z,9.23
2023-04-28T11:35:22.235Z,6.97
2023-04-28T11:39:31.862Z,6.97
2023-04-28T11:43:46.442Z,7.37
2023-04-28T11:47:51.347Z,7.17
2023-04-28T11:51:54.840Z,7.03
2023-04-28T11:56:07.953Z,7.07
2023-04-28T12:00:19.133Z,6.93
2023-04-28T12:04:31.815Z,6.40
2023-04-28T12:08:34.606Z,7.77
2023-04-28T12:16:45.022Z,6.40
2023-04-28T12:20:50.137Z,5.60
2023-04-28T12:25:07.923Z,6.83
2023-04-28T12:29:11.020Z,6.80
2023-04-28T12:33:24.741Z,6.10
2023-04-28T12:37:28.923Z,5.77
2023-04-28T12:41:32.415Z,7.30
2023-04-28T12:45:36.482Z,5.77
2023-04-28T12:49:41.467Z,6.67
2023-04-28T12:53:45.816Z,5.83
2023-04-28T12:57:48.459Z,6.10
2023-04-28T13:01:51.892Z,5.67
2023-04-28T13:05:54.679Z,6.17
2023-04-28T13:09:58.894Z,5.60
2023-04-28T13:14:01.870Z,5.17
2023-04-28T13:18:05.893Z,4.57
2023-04-28T13:22:09.221Z,4.90
2023-04-28T13:26:13.304Z,4.80
2023-04-28T13:30:15.933Z,5.90
2023-04-28T13:34:18.966Z,4.70
2023-04-28T13:38:22.138Z,5.37
2023-04-28T13:42:26.279Z,5.40
2023-04-28T13:46:29.118Z,5.20
2023-04-28T13:50:32.594Z,6.93
2023-04-28T13:54:37.553Z,9.10
2023-04-28T13:58:41.996Z,8.43
2023-04-28T14:02:45.268Z,5.27
2023-04-28T14:06:48.132Z,5.57
2023-04-28T14:10:51.380Z,4.77
2023-04-28T14:14:57.670Z,4.70
2023-04-28T14:19:00.500Z,4.90
2023-04-28T14:23:04.089Z,4.80
2023-04-28T14:27:07.404Z,4.50
2023-04-28T14:31:14.345Z,5.67
2023-04-28T14:35:17.468Z,5.00
2023-04-28T14:39:21.559Z,5.00
2023-04-28T14:43:24.836Z,5.00
2023-04-28T14:47:30.216Z,5.20
2023-04-28T14:51:33.180Z,4.30
2023-04-28T14:55:36.170Z,6.30
2023-04-28T14:59:38.864Z,5.47
2023-04-28T15:03:43.854Z,5.03
2023-04-28T15:07:46.967Z,4.63
2023-04-28T15:11:49.744Z,4.63
2023-04-28T15:15:52.636Z,3.30
2023-04-28T15:19:57.209Z,4.23
2023-04-28T15:24:00.621Z,4.50
2023-04-28T15:28:04.376Z,4.40
2023-04-28T15:32:07.864Z,5.57
2023-04-28T15:36:13.700Z,4.00
2023-04-28T15:40:17.632Z,6.77
2023-04-28T15:44:20.609Z,3.57
2023-04-28T15:48:24.005Z,3.70
2023-04-28T15:52:28.231Z,3.10
2023-04-28T15:56:31.047Z,3.10
2023-04-28T16:00:34.213Z,3.40
2023-04-28T16:04:37.324Z,3.00
2023-04-28T16:08:41.585Z,3.30
2023-04-28T16:12:46.978Z,4.20
2023-04-28T16:16:49.803Z,3.90
2023-04-28T16:20:53.817Z,3.80
2023-04-28T16:25:00.397Z,4.43
2023-04-28T16:29:03.167Z,4.13
2023-04-28T16:33:06.044Z,4.00
2023-04-28T16:37:08.963Z,4.73
2023-04-28T16:41:13.489Z,3.60
2023-04-28T16:45:16.834Z,5.03
2023-04-28T16:49:19.636Z,4.60
2023-04-28T16:53:24.645Z,4.10
2023-04-28T16:57:29.045Z,2.80
2023-04-28T17:01:31.970Z,4.20
2023-04-28T17:05:36.351Z,3.20
2023-04-28T17:09:40.297Z,2.60
2023-04-28T17:13:44.648Z,2.50
2023-04-28T17:17:49.980Z,1.73
2023-04-28T17:21:55.366Z,1.30
2023-04-28T17:25:58.408Z,2.33
2023-04-28T17:30:02.568Z,2.90
2023-04-28T17:34:05.289Z,2.90
2023-04-28T17:38:07.997Z,1.10
2023-04-28T17:42:10.739Z,1.40
2023-04-28T17:46:15.871Z,1.10
2023-04-28T17:50:18.788Z,1.40
2023-04-28T17:54:21.562Z,1.37
2023-04-28T17:58:24.640Z,1.20
2023-04-28T18:02:29.235Z,1.30
2023-04-28T18:06:32.101Z,1.30
2023-04-28T18:10:35.299Z,5.40
2023-04-28T18:14:38.542Z,1.30
2023-04-28T18:18:43.070Z,1.57
2023-04-28T18:22:45.919Z,1.40
2023-04-28T18:26:48.632Z,1.70
2023-04-28T18:30:50.340Z,1.60
2023-04-28T18:34:54.571Z,1.20
2023-04-28T18:38:57.716Z,1.47
2023-04-28T18:43:01.385Z,1.80
2023-04-28T18:47:04.317Z,1.60
2023-04-28T18:51:08.767Z,4.30
2023-04-28T18:55:11.965Z,1.90
2023-04-28T18:59:14.712Z,5.57
2023-04-28T19:03:17.697Z,3.77
2023-04-28T19:07:22.155Z,2.73
2023-04-28T19:11:25.161Z,3.37
2023-04-28T19:15:27.997Z,3.37
2023-04-28T19:19:33.227Z,3.73
2023-04-28T19:23:39.330Z,6.50
2023-04-28T19:27:42.983Z,9.70
2023-04-28T19:31:45.856Z,3.00
2023-04-28T19:35:48.888Z,5.43
2023-04-28T19:39:53.153Z,7.40
2023-04-28T19:44:00.217Z,5.47
2023-04-28T19:48:04.815Z,6.93
2023-04-28T19:52:07.561Z,7.27
2023-04-28T19:56:11.665Z,9.50
2023-04-28T20:00:15.027Z,7.53
2023-04-28T20:04:18.329Z,5.53
2023-04-28T20:08:24.184Z,3.63
2023-04-28T20:12:28.755Z,3.80
2023-04-28T20:16:31.751Z,4.03
2023-04-28T20:20:34.632Z,3.80
2023-04-28T20:24:38.573Z,3.93
2023-04-28T20:28:42.764Z,2.67
2023-04-28T20:32:45.502Z,2.60
2023-04-28T20:36:48.242Z,3.00
2023-04-28T20:40:51.225Z,3.87
2023-04-28T20:44:55.313Z,2.00
2023-04-28T20:48:59.488Z,2.43
2023-04-28T20:53:02.167Z,1.97
2023-04-28T20:57:05.488Z,2.03
2023-04-28T21:01:09.700Z,2.20
2023-04-28T21:05:12.544Z,2.10
2023-04-28T21:09:15.312Z,1.80
2023-04-28T21:13:18.550Z,2.73
2023-04-28T21:17:23.012Z,1.30
2023-04-28T21:21:25.764Z,2.80
2023-04-28T21:25:28.692Z,1.67
2023-04-28T21:29:31.944Z,1.90
2023-04-28T21:33:36.355Z,2.13
2023-04-28T21:37:39.299Z,2.73
2023-04-28T21:41:42.836Z,1.27
2023-04-28T21:45:48.457Z,1.70
2023-04-28T21:49:53.340Z,3.57
2023-04-28T21:53:56.061Z,1.63
2023-04-28T21:58:00.418Z,1.50
2023-04-28T22:02:03.628Z,1.33
2023-04-28T22:06:07.714Z,1.43
2023-04-28T22:10:11.451Z,2.40
2023-04-28T22:14:30.441Z,2.60
2023-04-28T22:18:37.023Z,3.47
2023-04-28T22:22:41.618Z,3.97
2023-04-28T22:26:44.503Z,4.37
2023-04-28T22:30:47.531Z,2.70
2023-04-28T22:34:52.090Z,4.73
2023-04-28T22:38:56.498Z,4.23
2023-04-28T22:42:59.191Z,3.10
2023-04-28T22:47:02.513Z,3.37
2023-04-28T22:51:05.301Z,3.10
2023-04-28T22:55:09.792Z,2.40
2023-04-28T22:59:12.844Z,2.30
2023-04-28T23:03:16.150Z,3.17
2023-04-28T23:07:19.506Z,3.13
2023-04-28T23:11:24.062Z,3.23
2023-04-28T23:15:26.814Z,3.47
2023-04-28T23:19:29.742Z,2.80
2023-04-28T23:23:33.179Z,2.73
2023-04-28T23:27:37.578Z,3.00
2023-04-28T23:31:40.529Z,3.73
2023-04-28T23:35:43.306Z,3.47
2023-04-28T23:39:46.119Z,2.30
2023-04-28T23:43:53.628Z,2.30
2023-04-28T23:47:56.447Z,2.63
2023-04-28T23:51:59.321Z,2.33
2023-04-28T23:56:02.260Z,2.30
